Terminal Aerodrome Forecast
Issued by NWS Shreveport, LA

Home | Current Version | Previous Version | Text Only | Print | Product List | Glossary On
Versions: 1 2 3 4 5 6 7 8 9 10 11 12 13 14 15 16 17 18 19
000
FTUS44 KSHV 220500 RRA
TAFLFK
TAF
KLFK 220541Z 2206/2306 15007KT P6SM FEW007 OVC035
      TEMPO 2207/2210 BKN007
     FM221000 16007KT 5SM BR OVC007
     FM221600 19008KT P6SM OVC008
     FM221800 21008KT P6SM OVC012
     FM222100 22009KT P6SM BKN025
     FM230000 26004KT P6SM BKN025=

USA.gov is the U.S. government's official web portal to all federal, state and local government web resources and services.